Time;durP1;ratioP1;P1;durP2;ratioP2;P2;SDS_P1;SDS_P2;PMS_P1;PMS_P2;Temp;Humidity;BMP_temperature;BMP_pressure;BME280_temperature;BME280_humidity;BME280_pressure;Samples;Min_cycle;Max_cycle;Signal;HPM_P1;HPM_P2
2022/07/08 00:01:14;;;;;;;14.13;1.83;;;14.50;99.90;;;;;;6066985;23;20068;-94
2022/07/08 00:03:40;;;;;;;13.82;1.80;;;14.50;99.90;;;;;;6067727;23;20014;-94
2022/07/08 00:06:05;;;;;;;8.73;1.40;;;14.50;99.90;;;;;;6068507;23;20029;-94
2022/07/08 00:08:32;;;;;;;15.60;1.75;;;14.50;99.90;;;;;;6068980;23;20025;-94
2022/07/08 00:10:58;;;;;;;16.10;1.88;;;14.60;99.90;;;;;;6068934;23;20014;-94
2022/07/08 00:13:24;;;;;;;12.73;1.95;;;14.90;99.90;;;;;;6068936;23;20332;-94
2022/07/08 00:15:50;;;;;;;9.80;1.35;;;14.40;99.90;;;;;;6068192;23;20014;-94
2022/07/08 00:18:15;;;;;;;8.23;1.50;;;14.50;99.90;;;;;;6069332;23;20057;-94
2022/07/08 00:20:41;;;;;;;11.95;1.52;;;14.70;99.90;;;;;;6068504;23;20029;-93
2022/07/08 00:23:07;;;;;;;11.15;1.35;;;14.50;99.90;;;;;;6068369;23;20022;-94
2022/07/08 00:25:32;;;;;;;17.90;2.13;;;14.50;99.90;;;;;;6070528;23;20632;-94
2022/07/08 00:27:58;;;;;;;13.63;2.08;;;14.50;99.90;;;;;;6069872;23;20006;-95
2022/07/08 00:30:24;;;;;;;13.75;1.50;;;14.40;99.90;;;;;;6068123;23;20014;-93
2022/07/08 00:32:49;;;;;;;14.43;1.90;;;14.40;99.90;;;;;;6069839;23;20065;-94
2022/07/08 00:35:15;;;;;;;13.90;1.85;;;14.70;99.90;;;;;;6067627;23;20033;-94
2022/07/08 00:37:41;;;;;;;15.63;1.83;;;14.70;99.90;;;;;;6070662;23;20018;-94
2022/07/08 00:40:07;;;;;;;16.52;1.70;;;14.70;99.90;;;;;;6068910;23;20370;-94
2022/07/08 00:42:32;;;;;;;10.38;1.50;;;14.40;99.90;;;;;;6070066;23;20498;-95
2022/07/08 00:44:58;;;;;;;15.00;1.90;;;14.50;99.90;;;;;;6069325;23;20022;-94
2022/07/08 00:47:24;;;;;;;11.77;1.25;;;14.40;99.90;;;;;;6068378;23;20010;-93
2022/07/08 00:49:50;;;;;;;12.77;1.52;;;14.50;99.90;;;;;;6067482;23;20456;-94
2022/07/08 00:52:17;;;;;;;10.93;1.90;;;14.70;99.90;;;;;;6068647;23;20036;-94
2022/07/08 00:54:42;;;;;;;13.07;2.03;;;14.50;99.90;;;;;;6068795;23;20022;-95
2022/07/08 00:57:08;;;;;;;20.73;2.38;;;14.50;99.90;;;;;;6068035;23;20018;-94
2022/07/08 00:59:34;;;;;;;11.98;1.65;;;14.50;99.90;;;;;;6063058;23;20023;-93
2022/07/08 01:02:00;;;;;;;10.65;1.48;;;14.50;99.90;;;;;;6064295;23;20061;-94
2022/07/08 01:04:25;;;;;;;16.67;1.73;;;14.70;99.90;;;;;;6062939;23;20023;-94
2022/07/08 01:06:51;;;;;;;12.73;1.63;;;14.40;99.90;;;;;;6063940;23;20014;-93
2022/07/08 01:09:17;;;;;;;16.48;2.08;;;14.30;99.90;;;;;;6064404;23;20463;-93
2022/07/08 01:11:45;;;;;;;15.35;1.83;;;14.30;99.90;;;;;;6062937;23;20160;-94
2022/07/08 01:14:12;;;;;;;13.70;2.25;;;14.30;99.90;;;;;;6040618;23;20514;-94
2022/07/08 01:16:38;;;;;;;16.83;2.45;;;14.20;99.90;;;;;;6042289;23;20092;-93
2022/07/08 01:19:03;;;;;;;8.73;1.50;;;14.00;99.90;;;;;;6063762;23;20455;-94
2022/07/08 01:21:29;;;;;;;15.52;1.65;;;14.20;99.90;;;;;;6063518;23;20026;-94
2022/07/08 01:23:55;;;;;;;9.85;1.40;;;14.40;99.90;;;;;;6064368;23;20018;-94
2022/07/08 01:26:20;;;;;;;11.52;1.73;;;13.90;99.90;;;;;;6063069;23;20093;-94
2022/07/08 01:28:46;;;;;;;11.80;1.70;;;13.90;99.90;;;;;;6064123;23;20156;-94
2022/07/08 01:31:12;;;;;;;16.80;1.48;;;14.20;99.90;;;;;;6064203;23;20033;-93
2022/07/08 01:33:37;;;;;;;13.02;1.80;;;13.90;99.90;;;;;;6063442;23;20014;-93
2022/07/08 01:36:04;;;;;;;11.90;1.65;;;13.80;99.90;;;;;;6065492;23;20110;-94
2022/07/08 01:38:29;;;;;;;16.33;1.73;;;13.70;99.90;;;;;;6040709;23;20466;-94
2022/07/08 01:40:55;;;;;;;21.23;2.15;;;13.70;99.90;;;;;;6063074;23;20026;-94
2022/07/08 01:43:21;;;;;;;16.10;1.65;;;13.70;99.90;;;;;;6063497;23;20084;-94
2022/07/08 01:45:47;;;;;;;10.20;1.77;;;13.60;99.90;;;;;;6063341;23;20022;-94
2022/07/08 01:48:13;;;;;;;16.77;2.00;;;13.50;99.90;;;;;;6039629;23;20461;-94
2022/07/08 01:50:39;;;;;;;13.32;1.92;;;13.60;99.90;;;;;;6063004;23;20033;-94
2022/07/08 01:53:04;;;;;;;8.68;1.38;;;13.50;99.90;;;;;;6062920;23;20050;-94
2022/07/08 01:55:30;;;;;;;16.45;1.98;;;13.50;99.90;;;;;;6063314;23;20029;-94
2022/07/08 01:57:56;;;;;;;11.18;1.77;;;13.60;99.90;;;;;;6063984;23;20025;-94
2022/07/08 02:00:22;;;;;;;16.58;2.35;;;13.60;99.90;;;;;;6174904;23;20507;-94
2022/07/08 02:02:47;;;;;;;12.30;1.67;;;13.60;99.90;;;;;;6215956;23;20309;-94
2022/07/08 02:05:14;;;;;;;15.90;1.80;;;13.60;99.90;;;;;;6214178;23;20070;-94
2022/07/08 02:07:41;;;;;;;16.90;1.77;;;13.50;99.90;;;;;;6189571;23;20475;-94
2022/07/08 02:10:07;;;;;;;19.50;1.92;;;13.40;99.90;;;;;;6190305;23;20019;-94
2022/07/08 02:12:33;;;;;;;15.70;2.33;;;13.40;99.90;;;;;;6190216;23;20055;-95
2022/07/08 02:15:02;;;;;;;8.93;2.05;;;13.40;99.90;;;;;;6189723;23;20020;-93
2022/07/08 02:17:29;;;;;;;13.52;2.20;;;13.40;99.90;;;;;;6189512;23;20012;-93
2022/07/08 02:19:55;;;;;;;13.50;2.00;;;13.30;99.90;;;;;;6189647;23;20099;-93
2022/07/08 02:22:21;;;;;;;18.00;2.53;;;13.30;99.90;;;;;;6213852;23;20058;-93
2022/07/08 02:24:47;;;;;;;16.05;2.05;;;13.40;99.90;;;;;;6190427;23;20020;-94
2022/07/08 02:27:13;;;;;;;15.25;2.15;;;13.30;99.90;;;;;;6214924;23;20004;-94
2022/07/08 02:29:39;;;;;;;20.00;2.25;;;13.70;99.90;;;;;;6214118;23;20062;-93
2022/07/08 02:32:05;;;;;;;12.73;2.08;;;13.40;99.90;;;;;;6215584;23;20039;-94
2022/07/08 02:34:31;;;;;;;10.45;1.48;;;13.30;99.90;;;;;;6189883;23;20345;-93
2022/07/08 02:36:56;;;;;;;13.43;1.70;;;13.30;99.90;;;;;;6189580;23;20074;-94
2022/07/08 02:39:22;;;;;;;14.85;1.92;;;13.30;99.90;;;;;;6215154;23;20020;-95
2022/07/08 02:41:48;;;;;;;12.00;1.58;;;13.30;99.90;;;;;;6214906;23;20091;-94
2022/07/08 02:44:14;;;;;;;14.23;2.35;;;13.30;99.90;;;;;;6216019;23;20082;-93
2022/07/08 02:46:41;;;;;;;13.57;1.48;;;13.20;99.90;;;;;;6190828;23;20027;-93
2022/07/08 02:49:08;;;;;;;13.50;1.70;;;13.10;99.90;;;;;;6190893;23;20452;-94
2022/07/08 02:51:35;;;;;;;16.88;2.00;;;13.50;99.90;;;;;;6189481;23;20456;-94
2022/07/08 02:54:01;;;;;;;14.63;1.50;;;13.20;99.90;;;;;;6190855;23;20070;-93
2022/07/08 02:56:27;;;;;;;10.52;1.50;;;13.20;99.90;;;;;;6189162;23;20023;-94
2022/07/08 02:58:53;;;;;;;16.60;2.00;;;13.10;99.90;;;;;;6176777;23;20025;-93
2022/07/08 03:01:18;;;;;;;11.00;1.67;;;13.40;99.90;;;;;;6063742;23;20101;-94
2022/07/08 03:03:44;;;;;;;11.48;1.50;;;13.00;99.90;;;;;;6064205;23;20015;-94
2022/07/08 03:06:10;;;;;;;15.35;1.92;;;13.00;99.90;;;;;;6063525;23;20359;-94
2022/07/08 03:08:35;;;;;;;14.30;1.55;;;13.10;99.90;;;;;;6063492;23;20037;-94
2022/07/08 03:11:01;;;;;;;12.30;1.80;;;13.50;99.90;;;;;;6062575;23;20026;-94
2022/07/08 03:13:26;;;;;;;10.68;1.83;;;13.00;99.90;;;;;;6063080;23;20015;-93
2022/07/08 03:15:52;;;;;;;14.85;1.83;;;12.90;99.90;;;;;;6063605;23;20018;-94
2022/07/08 03:18:18;;;;;;;16.63;1.83;;;12.90;99.90;;;;;;6063177;23;20022;-94
2022/07/08 03:20:44;;;;;;;18.20;2.03;;;13.00;99.90;;;;;;6064725;23;20050;-93
2022/07/08 03:23:09;;;;;;;8.95;1.52;;;12.90;99.90;;;;;;6063186;23;20014;-94
2022/07/08 03:25:35;;;;;;;12.80;1.90;;;12.90;99.90;;;;;;6062871;23;20075;-93
2022/07/08 03:28:01;;;;;;;13.45;2.15;;;12.90;99.90;;;;;;6063991;23;20443;-94
2022/07/08 03:30:27;;;;;;;9.88;1.55;;;12.90;99.90;;;;;;6063110;23;20414;-94
2022/07/08 03:32:53;;;;;;;21.83;3.05;;;12.80;99.90;;;;;;6063799;23;20058;-93
2022/07/08 03:35:19;;;;;;;20.25;1.95;;;12.90;99.90;;;;;;6062919;23;20026;-93
2022/07/08 03:37:45;;;;;;;16.48;2.13;;;13.00;99.90;;;;;;6063751;23;20018;-94
2022/07/08 03:43:14;;;;;;;13.95;2.10;;;12.90;99.90;;;;;;6087898;23;20026;-94
2022/07/08 03:45:39;;;;;;;15.15;1.95;;;12.90;99.90;;;;;;6063047;23;20080;-94
2022/07/08 03:48:05;;;;;;;14.73;1.90;;;13.10;99.90;;;;;;6066342;23;20022;-94
2022/07/08 03:50:31;;;;;;;12.18;1.83;;;13.20;99.90;;;;;;6063587;23;20025;-94
2022/07/08 03:52:57;;;;;;;14.73;2.10;;;12.90;99.90;;;;;;6063874;23;20034;-94
2022/07/08 03:55:24;;;;;;;22.55;3.95;;;13.40;99.90;;;;;;6063893;23;20025;-94
2022/07/08 03:57:51;;;;;;;16.52;2.00;;;13.00;99.90;;;;;;6063945;23;20447;-93
2022/07/08 04:00:17;;;;;;;14.35;1.88;;;13.00;99.90;;;;;;6065222;23;20019;-95
2022/07/08 04:02:42;;;;;;;13.90;1.92;;;13.10;99.90;;;;;;6041856;23;20106;-94
2022/07/08 04:05:08;;;;;;;19.45;2.83;;;13.10;99.90;;;;;;6067311;23;20038;-94
2022/07/08 04:07:34;;;;;;;14.52;2.25;;;13.10;99.90;;;;;;6063506;23;20053;-94
2022/07/08 04:10:00;;;;;;;14.77;2.15;;;13.30;99.90;;;;;;6063901;23;20069;-93
2022/07/08 04:12:26;;;;;;;21.80;2.13;;;13.10;99.90;;;;;;6065262;23;20056;-94
2022/07/08 04:14:51;;;;;;;19.27;2.20;;;13.10;99.90;;;;;;6044165;23;20443;-93
2022/07/08 04:17:17;;;;;;;25.50;2.30;;;13.20;99.90;;;;;;6068478;23;20050;-94
2022/07/08 04:19:42;;;;;;;16.45;2.35;;;13.20;99.90;;;;;;6063387;23;20018;-95
2022/07/08 04:22:08;;;;;;;11.23;1.65;;;13.20;99.90;;;;;;6065519;23;20054;-93
2022/07/08 04:24:34;;;;;;;19.77;2.13;;;13.30;99.90;;;;;;6064370;23;20022;-94
2022/07/08 04:27:00;;;;;;;12.90;2.38;;;13.30;99.90;;;;;;6040717;23;20069;-94
2022/07/08 04:29:26;;;;;;;13.35;1.95;;;13.40;99.90;;;;;;6040202;23;20049;-93
2022/07/08 04:31:51;;;;;;;13.98;2.25;;;13.50;99.90;;;;;;6066441;23;20037;-94
2022/07/08 04:34:17;;;;;;;16.75;2.67;;;13.80;99.90;;;;;;6063765;23;20064;-93
2022/07/08 04:36:43;;;;;;;11.65;2.30;;;13.60;99.90;;;;;;6065138;23;20018;-93
2022/07/08 04:39:08;;;;;;;11.00;1.75;;;13.90;99.90;;;;;;6064460;23;20018;-94
2022/07/08 04:41:34;;;;;;;18.63;2.53;;;13.90;99.90;;;;;;6062922;23;20022;-94
2022/07/08 04:44:00;;;;;;;10.55;1.90;;;14.00;99.90;;;;;;6064583;23;20025;-94
2022/07/08 04:46:25;;;;;;;15.52;1.88;;;14.10;99.90;;;;;;6063314;23;20486;-94
2022/07/08 04:48:52;;;;;;;15.38;2.33;;;14.20;99.90;;;;;;6065732;23;20427;-93
2022/07/08 04:51:18;;;;;;;15.18;2.20;;;14.20;99.90;;;;;;6063023;23;20017;-94
2022/07/08 04:53:44;;;;;;;14.20;2.00;;;14.60;99.90;;;;;;6064175;23;20022;-94
2022/07/08 04:56:10;;;;;;;12.82;2.28;;;14.30;99.90;;;;;;6063600;23;20073;-94
2022/07/08 04:58:36;;;;;;;11.45;1.83;;;14.50;99.90;;;;;;6045404;22;20014;-94
2022/07/08 05:01:02;;;;;;;16.88;2.38;;;14.80;99.90;;;;;;6070696;23;20465;-95
2022/07/08 05:03:31;;;;;;;15.77;2.42;;;14.50;99.90;;;;;;6068254;23;20022;-92
2022/07/08 05:05:56;;;;;;;18.13;2.45;;;14.60;99.90;;;;;;6070458;23;20046;-92
2022/07/08 05:08:22;;;;;;;21.05;2.28;;;14.70;99.90;;;;;;6069106;23;20025;-92
2022/07/08 05:10:48;;;;;;;17.13;2.45;;;14.70;99.90;;;;;;6068458;23;20075;-92
2022/07/08 05:13:14;;;;;;;23.38;2.55;;;15.00;99.90;;;;;;6070023;23;20088;-92
2022/07/08 05:15:40;;;;;;;19.10;2.75;;;14.90;99.90;;;;;;6070403;23;20482;-93
2022/07/08 05:18:06;;;;;;;15.40;2.03;;;15.00;99.90;;;;;;6070651;23;20045;-92
2022/07/08 05:20:31;;;;;;;22.33;2.92;;;15.10;99.90;;;;;;6067568;23;20022;-92
2022/07/08 05:22:57;;;;;;;15.65;2.22;;;15.10;99.90;;;;;;6068639;23;20025;-92
2022/07/08 05:25:23;;;;;;;18.80;2.40;;;15.20;99.90;;;;;;6067271;23;20105;-93
2022/07/08 05:27:50;;;;;;;19.05;2.40;;;15.30;99.90;;;;;;6080251;23;20006;-92
2022/07/08 05:30:15;;;;;;;17.25;2.28;;;15.30;99.90;;;;;;6069512;23;20049;-92
2022/07/08 05:32:41;;;;;;;15.90;2.00;;;15.30;99.90;;;;;;6068613;23;20025;-92
2022/07/08 05:35:08;;;;;;;14.65;2.03;;;15.30;99.90;;;;;;6067651;23;20037;-92
2022/07/08 05:37:37;;;;;;;13.10;1.70;;;15.40;99.90;;;;;;6068943;23;20107;-93
2022/07/08 05:40:05;;;;;;;10.15;1.90;;;15.40;99.90;;;;;;6068536;23;20022;-93
2022/07/08 05:42:31;;;;;;;14.88;2.13;;;15.40;99.90;;;;;;6069107;23;20053;-91
2022/07/08 05:44:57;;;;;;;16.25;2.63;;;15.40;99.90;;;;;;6069994;23;20025;-92
2022/07/08 05:47:22;;;;;;;15.43;2.58;;;15.50;99.90;;;;;;6069226;23;20071;-93
2022/07/08 05:49:48;;;;;;;18.63;2.35;;;15.50;99.90;;;;;;6069043;23;20033;-92
2022/07/08 05:52:14;;;;;;;13.15;1.92;;;15.60;99.90;;;;;;6070279;23;20320;-93
2022/07/08 05:54:45;;;;;;;12.32;2.33;;;15.70;99.90;;;;;;6069786;23;20136;-92
2022/07/08 05:57:11;;;;;;;13.63;2.25;;;15.70;99.90;;;;;;6071498;23;20048;-92
2022/07/08 05:59:37;;;;;;;15.70;2.20;;;15.80;99.90;;;;;;6069768;23;20029;-93
2022/07/08 06:02:03;;;;;;;12.45;2.15;;;15.90;99.90;;;;;;6072556;23;20018;-92
2022/07/08 06:04:28;;;;;;;13.30;2.45;;;16.00;99.90;;;;;;6070970;23;20089;-92
2022/07/08 06:06:54;;;;;;;18.98;2.85;;;16.10;99.90;;;;;;6069453;23;20069;-93
2022/07/08 06:09:20;;;;;;;13.48;2.40;;;16.20;99.90;;;;;;6069659;23;20097;-93
2022/07/08 06:11:46;;;;;;;10.38;1.75;;;16.30;99.90;;;;;;6069151;23;20022;-93
2022/07/08 06:14:12;;;;;;;14.18;2.15;;;16.40;99.90;;;;;;6070124;23;20371;-93
2022/07/08 06:16:37;;;;;;;15.30;2.40;;;16.40;99.90;;;;;;6068798;23;20029;-93
2022/07/08 06:19:03;;;;;;;16.52;2.22;;;16.40;99.90;;;;;;6070628;23;20042;-93
2022/07/08 06:21:29;;;;;;;14.43;2.10;;;16.50;99.90;;;;;;6068175;23;20508;-93
2022/07/08 06:23:54;;;;;;;15.35;2.30;;;16.60;99.90;;;;;;6068810;23;20363;-93
2022/07/08 06:26:20;;;;;;;14.32;2.65;;;16.70;99.90;;;;;;6072295;23;20105;-92
2022/07/08 06:28:46;;;;;;;15.63;2.00;;;16.80;99.90;;;;;;6076495;23;20030;-94
2022/07/08 06:31:12;;;;;;;14.75;2.50;;;16.90;99.90;;;;;;6070555;23;20053;-92
2022/07/08 06:33:38;;;;;;;17.75;1.98;;;17.00;99.90;;;;;;6070440;23;20018;-93
2022/07/08 06:36:04;;;;;;;12.23;1.98;;;17.10;99.90;;;;;;6068885;23;20044;-92
2022/07/08 06:38:29;;;;;;;9.77;1.98;;;17.10;99.90;;;;;;6076326;23;20014;-93
2022/07/08 06:40:55;;;;;;;15.15;2.00;;;17.20;99.90;;;;;;6083158;23;20103;-93
2022/07/08 06:43:21;;;;;;;12.55;2.13;;;17.30;99.90;;;;;;6091893;23;20017;-93
2022/07/08 06:45:46;;;;;;;16.45;3.10;;;17.40;99.90;;;;;;6092695;23;20037;-93
2022/07/08 06:48:12;;;;;;;15.77;2.13;;;17.50;99.90;;;;;;6091517;23;20021;-93
2022/07/08 06:50:38;;;;;;;10.40;2.13;;;17.50;99.90;;;;;;6089738;23;20002;-93
2022/07/08 06:53:04;;;;;;;10.88;1.98;;;17.50;99.90;;;;;;6082951;23;20022;-93
2022/07/08 06:55:29;;;;;;;14.65;2.13;;;17.60;99.90;;;;;;6088337;23;20022;-92
2022/07/08 06:57:55;;;;;;;18.33;2.47;;;17.70;99.90;;;;;;6091742;23;20157;-91
2022/07/08 07:00:22;;;;;;;12.38;1.67;;;17.80;99.90;;;;;;6090629;23;20021;-92
2022/07/08 07:02:49;;;;;;;17.55;2.35;;;17.80;99.90;;;;;;6090947;23;20010;-93
2022/07/08 07:05:15;;;;;;;13.35;2.30;;;17.80;99.90;;;;;;6091234;23;20029;-92
2022/07/08 07:07:41;;;;;;;16.65;2.50;;;17.90;99.90;;;;;;6089588;23;20053;-93
2022/07/08 07:10:07;;;;;;;18.70;2.50;;;18.00;99.90;;;;;;6078563;23;20022;-92
2022/07/08 07:12:33;;;;;;;14.60;1.85;;;18.10;99.90;;;;;;6068466;23;20048;-92
2022/07/08 07:14:58;;;;;;;13.10;1.67;;;18.20;99.90;;;;;;6072710;23;20018;-93
2022/07/08 07:17:24;;;;;;;12.23;1.67;;;18.20;99.90;;;;;;6070762;23;20037;-92
2022/07/08 07:19:50;;;;;;;17.92;2.42;;;18.20;99.90;;;;;;6071449;23;20033;-92
2022/07/08 07:22:16;;;;;;;11.48;1.85;;;18.30;99.90;;;;;;6067927;23;20045;-93
2022/07/08 07:24:42;;;;;;;14.43;2.03;;;18.30;99.90;;;;;;6067403;23;20019;-95
2022/07/08 07:27:08;;;;;;;8.73;1.73;;;18.30;99.90;;;;;;6068761;23;20013;-93
2022/07/08 07:29:34;;;;;;;15.43;2.22;;;18.30;99.90;;;;;;6069713;23;20028;-92
2022/07/08 07:32:03;;;;;;;13.18;1.85;;;18.40;99.90;;;;;;6067406;23;20037;-91
2022/07/08 07:34:29;;;;;;;13.98;2.20;;;18.40;99.90;;;;;;6067874;23;20021;-87
2022/07/08 07:36:55;;;;;;;13.75;2.03;;;18.40;99.90;;;;;;6066921;23;20462;-89
2022/07/08 07:39:21;;;;;;;15.35;2.00;;;18.40;99.90;;;;;;6065165;23;20029;-88
2022/07/08 07:41:46;;;;;;;7.57;1.50;;;18.40;99.90;;;;;;6067189;23;20029;-88
2022/07/08 07:44:12;;;;;;;13.10;2.08;;;18.40;99.90;;;;;;6066504;23;20018;-88
2022/07/08 07:46:38;;;;;;;11.50;1.77;;;18.30;99.90;;;;;;6067863;23;20018;-88
2022/07/08 07:49:04;;;;;;;11.65;1.90;;;18.30;99.90;;;;;;6068754;23;20018;-92
2022/07/08 07:51:29;;;;;;;10.82;2.33;;;18.30;99.90;;;;;;6066356;23;20018;-92
2022/07/08 07:53:55;;;;;;;10.70;1.63;;;18.20;99.90;;;;;;6068250;23;20022;-91
2022/07/08 07:56:22;;;;;;;10.02;1.63;;;18.20;99.90;;;;;;6067939;23;20057;-93
2022/07/08 07:58:47;;;;;;;11.90;1.90;;;18.20;99.90;;;;;;6067247;23;20427;-90
2022/07/08 08:01:13;;;;;;;8.40;1.50;;;18.30;99.90;;;;;;6067727;23;20026;-93
2022/07/08 08:03:39;;;;;;;13.85;1.90;;;18.30;99.90;;;;;;6067942;23;20068;-94
2022/07/08 08:06:05;;;;;;;7.60;1.52;;;18.30;99.90;;;;;;6069269;23;20022;-92
2022/07/08 08:08:32;;;;;;;15.10;2.00;;;18.30;99.90;;;;;;6067709;23;20014;-92
2022/07/08 08:11:00;;;;;;;13.38;2.35;;;18.40;99.90;;;;;;6068040;23;20350;-91
2022/07/08 08:13:26;;;;;;;15.77;2.20;;;18.50;99.90;;;;;;6069445;23;20018;-90
2022/07/08 08:15:52;;;;;;;11.18;1.48;;;18.60;99.90;;;;;;6067333;23;20044;-91
2022/07/08 08:18:17;;;;;;;10.13;1.92;;;18.60;99.90;;;;;;6068040;23;20477;-92
2022/07/08 08:20:43;;;;;;;14.25;1.65;;;18.70;99.90;;;;;;6068275;23;20018;-92
2022/07/08 08:23:09;;;;;;;11.90;2.17;;;18.70;99.90;;;;;;6070180;23;20097;-90
2022/07/08 08:25:35;;;;;;;9.50;1.85;;;18.70;99.90;;;;;;6068740;23;20032;-90
2022/07/08 08:28:03;;;;;;;8.65;1.60;;;18.70;99.90;;;;;;6069127;23;20467;-90
2022/07/08 08:30:29;;;;;;;10.02;2.13;;;18.70;99.90;;;;;;6069282;23;20056;-91
2022/07/08 08:32:55;;;;;;;11.18;1.40;;;18.70;99.90;;;;;;6069184;23;20022;-91
2022/07/08 08:35:20;;;;;;;10.93;1.65;;;18.80;99.90;;;;;;6067295;23;20022;-92
2022/07/08 08:37:46;;;;;;;6.85;1.50;;;18.90;99.90;;;;;;6068660;23;20057;-92
2022/07/08 08:40:13;;;;;;;12.70;2.58;;;18.90;99.90;;;;;;6066113;23;20022;-92
2022/07/08 08:42:40;;;;;;;9.35;1.80;;;18.90;99.90;;;;;;6067342;23;20018;-92
2022/07/08 08:45:07;;;;;;;12.05;1.65;;;18.80;99.90;;;;;;6063440;23;20393;-92
2022/07/08 08:47:35;;;;;;;15.65;1.88;;;18.80;99.90;;;;;;6065916;23;20022;-91
2022/07/08 08:52:49;;;;;;;11.95;1.83;;;18.70;99.90;;;;;;6090437;23;20097;-92
2022/07/08 08:55:27;;;;;;;11.48;1.70;;;18.70;99.90;;;;;;6065510;23;20060;-92
2022/07/08 08:58:00;;;;;;;12.98;1.60;;;18.60;99.90;;;;;;6066637;23;20351;-92
2022/07/08 09:00:27;;;;;;;10.38;1.67;;;18.60;99.90;;;;;;6065040;23;20096;-92
2022/07/08 09:02:54;;;;;;;10.50;1.77;;;18.70;99.90;;;;;;6066158;23;20041;-92
2022/07/08 09:05:21;;;;;;;11.10;1.60;;;18.90;99.90;;;;;;6065659;23;20022;-93
2022/07/08 09:07:47;;;;;;;10.27;2.10;;;19.00;99.90;;;;;;6066574;23;20470;-91
2022/07/08 09:10:14;;;;;;;9.32;1.88;;;19.20;99.90;;;;;;6065062;23;20014;-93
2022/07/08 09:12:58;;;;;;;9.68;1.83;;;19.40;99.90;;;;;;6066087;23;20026;-92
2022/07/08 09:15:40;;;;;;;8.20;1.77;;;19.60;99.90;;;;;;6068076;23;20029;-92
2022/07/08 09:18:09;;;;;;;14.75;2.13;;;19.70;99.90;;;;;;6065880;23;20018;-92
2022/07/08 09:20:39;;;;;;;12.35;1.95;;;19.90;99.90;;;;;;6064912;23;20022;-93
2022/07/08 09:23:12;;;;;;;16.73;2.00;;;19.90;99.90;;;;;;6066124;23;20017;-92
2022/07/08 09:25:38;;;;;;;10.68;1.80;;;20.00;99.90;;;;;;6065722;23;20026;-92
2022/07/08 09:28:04;;;;;;;15.73;2.00;;;20.00;99.90;;;;;;6066253;23;20021;-93
2022/07/08 09:30:30;;;;;;;9.15;1.73;;;20.10;99.90;;;;;;6064758;23;20018;-91
2022/07/08 09:32:58;;;;;;;12.40;2.00;;;20.20;99.90;;;;;;6067107;23;20022;-93
2022/07/08 09:35:33;;;;;;;7.32;1.58;;;20.30;99.90;;;;;;6066760;23;20062;-92
2022/07/08 09:38:04;;;;;;;13.27;2.05;;;20.40;99.90;;;;;;6066433;23;20018;-93
2022/07/08 09:40:29;;;;;;;10.63;1.40;;;20.50;99.90;;;;;;6065679;23;20025;-92
2022/07/08 09:42:55;;;;;;;6.20;1.33;;;20.50;99.90;;;;;;6069190;23;20005;-92
2022/07/08 09:45:32;;;;;;;8.23;1.55;;;20.50;99.90;;;;;;6063928;23;20354;-93
2022/07/08 09:48:03;;;;;;;15.05;1.88;;;20.50;99.90;;;;;;6072103;23;20095;-92
2022/07/08 09:50:39;;;;;;;5.47;1.48;;;20.60;99.90;;;;;;6066187;23;20018;-92
2022/07/08 09:53:20;;;;;;;11.30;1.83;;;20.70;99.90;;;;;;6065371;23;20022;-92
2022/07/08 09:55:51;;;;;;;8.35;1.50;;;20.80;99.90;;;;;;6065591;23;20108;-92
2022/07/08 09:58:20;;;;;;;8.73;1.50;;;20.90;99.90;;;;;;6065198;22;20029;-92
2022/07/08 10:00:49;;;;;;;11.02;1.50;;;21.00;99.90;;;;;;6065676;23;20033;-92
2022/07/08 10:03:15;;;;;;;6.60;1.45;;;21.00;99.90;;;;;;6068127;23;20018;-94
2022/07/08 10:05:42;;;;;;;11.80;1.92;;;21.10;99.90;;;;;;6067731;23;20018;-95
2022/07/08 10:08:09;;;;;;;7.75;1.70;;;21.10;99.90;;;;;;6069115;23;20018;-94
2022/07/08 10:10:37;;;;;;;6.93;1.60;;;21.00;99.90;;;;;;6067511;23;20454;-93
2022/07/08 10:13:03;;;;;;;6.60;1.50;;;21.00;99.90;;;;;;6068389;23;20021;-95
2022/07/08 10:15:31;;;;;;;8.05;1.85;;;21.00;99.90;;;;;;6067472;23;20021;-94
2022/07/08 10:18:03;;;;;;;12.65;1.30;;;21.00;99.90;;;;;;6069385;23;20020;-93
2022/07/08 10:20:31;;;;;;;7.80;1.58;;;21.20;99.90;;;;;;6065822;23;20018;-94
2022/07/08 10:23:01;;;;;;;10.40;1.45;;;21.30;99.90;;;;;;6068206;23;20049;-93
2022/07/08 10:25:29;;;;;;;10.48;1.83;;;21.30;99.90;;;;;;6066858;23;20263;-94
2022/07/08 10:28:05;;;;;;;10.63;1.67;;;21.40;99.90;;;;;;6070472;23;20071;-94
2022/07/08 10:30:46;;;;;;;13.38;2.15;;;21.50;99.90;;;;;;6066883;23;20421;-94
2022/07/08 10:33:18;;;;;;;9.80;1.70;;;21.60;99.90;;;;;;6067572;23;20091;-93
2022/07/08 10:36:00;;;;;;;7.90;1.38;;;21.60;99.90;;;;;;6070558;23;20018;-93
2022/07/08 10:38:32;;;;;;;9.30;1.70;;;21.60;99.90;;;;;;6067448;23;20018;-94
2022/07/08 10:41:05;;;;;;;9.40;1.90;;;21.70;99.90;;;;;;6067154;23;20029;-95
2022/07/08 10:43:32;;;;;;;13.38;2.10;;;22.00;99.90;;;;;;6068668;23;20025;-94
2022/07/08 10:46:10;;;;;;;8.32;1.38;;;22.10;99.90;;;;;;6068749;23;20022;-93
2022/07/08 10:48:53;;;;;;;10.73;1.63;;;22.20;99.90;;;;;;6068622;23;20113;-94
2022/07/08 10:51:19;;;;;;;8.40;1.92;;;22.20;99.90;;;;;;6067734;23;20025;-94
2022/07/08 10:53:47;;;;;;;9.07;1.70;;;22.30;99.90;;;;;;6068400;23;20064;-94
2022/07/08 10:56:50;;;;;;;13.50;2.20;;;22.30;99.90;;;;;;6067198;23;20071;-94
2022/07/08 10:59:17;;;;;;;10.40;1.73;;;22.30;99.90;;;;;;6094480;23;20097;-94
2022/07/08 11:01:50;;;;;;;8.00;1.42;;;22.20;99.90;;;;;;6074634;23;20036;-94
2022/07/08 11:04:31;;;;;;;6.68;1.40;;;22.10;99.90;;;;;;6070114;23;20087;-93
2022/07/08 11:07:16;;;;;;;13.65;2.30;;;22.10;99.90;;;;;;6068081;23;20022;-93
2022/07/08 11:09:44;;;;;;;9.45;1.50;;;22.10;99.90;;;;;;6067461;23;20501;-94
2022/07/08 11:12:12;;;;;;;8.88;1.77;;;22.10;99.90;;;;;;6067675;23;20450;-94
2022/07/08 11:14:43;;;;;;;7.18;1.63;;;22.20;99.90;;;;;;6071119;23;20485;-94
2022/07/08 11:17:21;;;;;;;8.30;1.65;;;22.50;99.90;;;;;;6067949;23;20097;-93
2022/07/08 11:19:48;;;;;;;8.52;1.40;;;22.60;99.90;;;;;;6068728;23;20542;-94
2022/07/08 11:22:14;;;;;;;8.57;1.60;;;22.60;99.90;;;;;;6067923;23;20018;-93
2022/07/08 11:24:43;;;;;;;9.40;1.88;;;22.70;99.90;;;;;;6068071;23;20070;-94
2022/07/08 11:27:10;;;;;;;8.70;1.55;;;22.70;99.90;;;;;;6067274;23;20443;-93
2022/07/08 11:29:36;;;;;;;8.05;1.90;;;22.70;99.90;;;;;;6068721;23;20079;-93
2022/07/08 11:32:05;;;;;;;8.10;1.70;;;22.70;99.90;;;;;;6068459;23;20438;-94
2022/07/08 11:34:31;;;;;;;7.65;1.60;;;22.70;99.90;;;;;;6066164;23;20022;-94
2022/07/08 11:36:59;;;;;;;8.20;2.00;;;22.70;99.90;;;;;;6065106;23;20022;-93
2022/07/08 11:39:26;;;;;;;8.80;2.00;;;22.70;99.90;;;;;;6065792;23;20409;-94
2022/07/08 11:41:52;;;;;;;8.45;2.22;;;22.80;99.90;;;;;;6065914;23;20021;-94
2022/07/08 11:44:20;;;;;;;8.60;1.83;;;23.00;99.90;;;;;;6064516;23;20041;-94
2022/07/08 11:46:49;;;;;;;9.88;1.52;;;23.10;99.90;;;;;;6065729;23;20560;-94
2022/07/08 11:49:15;;;;;;;9.45;2.00;;;23.20;99.90;;;;;;6065089;23;20101;-93
2022/07/08 11:51:51;;;;;;;9.38;1.85;;;23.00;99.90;;;;;;6065679;23;20029;-94
2022/07/08 11:54:25;;;;;;;7.50;1.70;;;22.90;99.90;;;;;;6067506;23;20105;-94
2022/07/08 11:56:54;;;;;;;10.73;2.38;;;22.60;99.90;;;;;;6071353;23;20029;-94
2022/07/08 11:59:24;;;;;;;6.00;1.75;;;22.60;99.90;;;;;;6070760;23;20016;-96
2022/07/08 12:01:51;;;;;;;8.25;1.90;;;22.40;99.90;;;;;;6070975;23;20026;-93
2022/07/08 12:04:17;;;;;;;8.93;1.75;;;22.40;99.90;;;;;;6071682;23;20014;-94
2022/07/08 12:06:48;;;;;;;7.97;1.70;;;22.40;99.90;;;;;;6075217;23;20461;-94
2022/07/08 12:09:15;;;;;;;9.00;1.83;;;22.50;99.90;;;;;;6069168;23;20045;-95
2022/07/08 12:11:44;;;;;;;9.50;2.08;;;22.60;99.90;;;;;;6067942;23;20014;-95
2022/07/08 12:14:11;;;;;;;10.35;2.05;;;22.60;99.90;;;;;;6068902;23;20086;-94
2022/07/08 12:16:45;;;;;;;10.77;1.98;;;22.70;99.90;;;;;;6069456;23;20040;-93
2022/07/08 12:19:34;;;;;;;9.30;1.90;;;22.60;99.90;;;;;;6069108;23;20029;-94
2022/07/08 12:22:02;;;;;;;8.93;1.90;;;22.70;99.90;;;;;;6069512;23;20445;-94
2022/07/08 12:24:38;;;;;;;13.00;2.47;;;22.90;99.90;;;;;;6069191;23;20014;-94
2022/07/08 12:27:07;;;;;;;7.82;1.73;;;23.10;99.90;;;;;;6068265;23;20022;-94
2022/07/08 12:29:38;;;;;;;12.88;1.95;;;23.20;99.90;;;;;;6068902;23;20181;-94
2022/07/08 12:32:04;;;;;;;11.50;2.45;;;23.20;99.90;;;;;;6068866;23;20101;-95
2022/07/08 12:34:30;;;;;;;7.32;2.05;;;23.10;99.90;;;;;;6068299;23;20022;-94
2022/07/08 12:37:14;;;;;;;9.00;1.75;;;23.10;99.90;;;;;;6068975;23;20094;-93
2022/07/08 12:39:41;;;;;;;10.60;2.03;;;23.20;99.90;;;;;;6067670;23;20037;-92
2022/07/08 12:42:06;;;;;;;7.40;2.17;;;23.40;99.90;;;;;;6069551;23;20382;-93
2022/07/08 12:44:35;;;;;;;14.30;2.13;;;23.50;99.90;;;;;;6063213;23;20014;-93